Time;durP1;ratioP1;P1;durP2;ratioP2;P2;SDS_P1;SDS_P2;PMS_P1;PMS_P2;Temp;Humidity;BMP_temperature;BMP_pressure;BME280_temperature;BME280_humidity;BME280_pressure;Samples;Min_cycle;Max_cycle;Signal;HPM_P1;HPM_P2
2021/05/10 00:02:03;;;;;;;5.50;3.27;;;16.80;88.40;;;;;;4941356;29;20175;-84
2021/05/10 00:04:28;;;;;;;4.57;3.03;;;16.80;88.40;;;;;;4940758;29;20274;-84
2021/05/10 00:06:54;;;;;;;4.70;3.13;;;16.80;88.20;;;;;;4940238;29;20510;-84
2021/05/10 00:09:20;;;;;;;3.67;2.60;;;16.80;88.20;;;;;;4940450;29;20227;-84
2021/05/10 00:11:45;;;;;;;4.53;3.10;;;16.80;88.20;;;;;;4940718;29;20561;-85
2021/05/10 00:14:11;;;;;;;3.70;2.73;;;16.80;88.30;;;;;;4940196;29;20254;-85
2021/05/10 00:16:37;;;;;;;3.67;2.70;;;16.70;88.40;;;;;;4940554;29;20234;-84
2021/05/10 00:19:04;;;;;;;3.17;2.80;;;16.70;88.60;;;;;;4940176;29;20994;-85
2021/05/10 00:21:29;;;;;;;3.70;2.90;;;16.70;88.70;;;;;;4956228;29;20600;-85
2021/05/10 00:23:55;;;;;;;4.27;3.07;;;16.60;88.80;;;;;;4939230;29;20450;-84
2021/05/10 00:26:22;;;;;;;9.40;3.20;;;16.60;89.40;;;;;;4939324;29;20227;-85
2021/05/10 00:28:48;;;;;;;4.83;3.37;;;16.50;89.70;;;;;;4939397;29;20633;-85
2021/05/10 00:31:14;;;;;;;4.33;2.97;;;16.40;90.20;;;;;;4939567;29;20434;-84
2021/05/10 00:33:41;;;;;;;9.63;3.40;;;16.30;90.30;;;;;;4938907;29;20261;-85
2021/05/10 00:36:07;;;;;;;5.50;3.23;;;16.20;90.80;;;;;;4956729;29;20254;-85
2021/05/10 00:38:32;;;;;;;15.13;3.20;;;16.10;91.40;;;;;;4939392;29;21158;-85
2021/05/10 00:40:58;;;;;;;4.23;2.90;;;16.00;91.80;;;;;;4957244;29;20183;-85
2021/05/10 00:43:23;;;;;;;5.10;3.57;;;15.90;92.10;;;;;;4957923;29;20207;-84
2021/05/10 00:45:49;;;;;;;4.20;3.20;;;15.80;92.20;;;;;;4940867;29;20211;-84
2021/05/10 00:48:17;;;;;;;4.07;2.83;;;15.70;92.20;;;;;;4957546;29;20175;-85
2021/05/10 00:50:43;;;;;;;3.57;2.90;;;15.70;92.00;;;;;;4940734;29;20183;-84
2021/05/10 00:53:08;;;;;;;4.00;2.87;;;15.70;92.30;;;;;;4940200;29;20800;-84
2021/05/10 00:55:35;;;;;;;4.03;3.03;;;15.70;92.30;;;;;;4939764;29;20230;-84
2021/05/10 00:58:02;;;;;;;4.97;3.10;;;15.60;92.20;;;;;;4939602;29;20183;-85
2021/05/10 01:00:35;;;;;;;3.27;2.70;;;15.70;92.00;;;;;;4939550;29;20985;-84
2021/05/10 01:03:01;;;;;;;3.70;3.13;;;15.60;92.00;;;;;;4939828;29;20443;-85
2021/05/10 01:05:26;;;;;;;5.10;2.90;;;15.60;91.90;;;;;;4939607;29;20435;-84
2021/05/10 01:07:53;;;;;;;4.20;3.03;;;15.60;91.80;;;;;;4939255;29;20186;-84
2021/05/10 01:10:20;;;;;;;3.70;2.70;;;15.60;92.20;;;;;;4938079;29;20179;-85
2021/05/10 01:12:47;;;;;;;4.90;3.20;;;15.50;92.40;;;;;;4938157;29;20438;-85
2021/05/10 01:15:15;;;;;;;7.53;2.97;;;15.40;92.70;;;;;;4938341;29;21025;-84
2021/05/10 01:17:41;;;;;;;5.40;3.40;;;15.30;93.30;;;;;;4938196;29;20455;-84
2021/05/10 01:20:10;;;;;;;5.60;3.17;;;15.20;93.30;;;;;;4938252;29;20960;-85
2021/05/10 01:22:53;;;;;;;4.53;2.90;;;15.20;93.60;;;;;;4937926;29;20546;-84
2021/05/10 01:25:27;;;;;;;3.73;3.10;;;15.20;93.40;;;;;;4938217;29;20474;-85
2021/05/10 01:27:54;;;;;;;6.00;3.37;;;15.10;93.90;;;;;;4939189;29;20877;-85
2021/05/10 01:30:31;;;;;;;4.90;2.90;;;15.00;94.40;;;;;;4939219;29;20466;-85
2021/05/10 01:32:58;;;;;;;6.53;3.30;;;14.90;94.70;;;;;;4940401;29;20488;-84
2021/05/10 01:35:29;;;;;;;4.97;2.77;;;14.80;94.70;;;;;;4939056;29;20478;-83
2021/05/10 01:37:55;;;;;;;4.70;3.10;;;14.80;95.10;;;;;;4940133;29;20433;-84
2021/05/10 01:40:21;;;;;;;7.17;3.17;;;14.70;94.90;;;;;;4939530;29;20450;-83
2021/05/10 01:42:47;;;;;;;4.30;3.30;;;14.70;95.20;;;;;;4938707;29;20450;-84
2021/05/10 01:45:13;;;;;;;4.50;3.13;;;14.60;95.30;;;;;;4956102;29;20415;-84
2021/05/10 01:47:39;;;;;;;4.30;3.30;;;14.60;95.20;;;;;;4955954;29;20230;-83
2021/05/10 01:50:15;;;;;;;5.93;3.10;;;14.60;95.30;;;;;;4938936;29;20521;-83
2021/05/10 01:52:41;;;;;;;3.87;2.87;;;14.60;95.50;;;;;;4938760;29;20338;-84
2021/05/10 01:55:09;;;;;;;5.10;3.07;;;14.60;95.20;;;;;;4955919;29;20900;-83
2021/05/10 01:57:35;;;;;;;2.93;2.60;;;14.60;95.30;;;;;;4954738;29;20419;-84
2021/05/10 02:00:01;;;;;;;3.27;2.80;;;14.60;95.20;;;;;;4937376;29;20463;-84
2021/05/10 02:02:29;;;;;;;4.97;3.50;;;14.60;95.20;;;;;;4937748;29;20203;-84
2021/05/10 02:05:06;;;;;;;4.33;3.17;;;14.60;95.30;;;;;;4953966;28;20270;-84
2021/05/10 02:07:32;;;;;;;4.20;3.17;;;14.60;95.20;;;;;;4963362;28;20487;-83
2021/05/10 02:09:58;;;;;;;7.63;3.40;;;14.60;95.10;;;;;;4973610;28;21117;-84
2021/05/10 02:12:23;;;;;;;4.83;3.43;;;14.60;95.10;;;;;;4956375;28;20445;-83
2021/05/10 02:14:49;;;;;;;3.13;2.60;;;14.60;95.00;;;;;;4956568;28;20242;-84
2021/05/10 02:17:14;;;;;;;5.00;2.70;;;14.60;94.80;;;;;;4957748;28;20554;-84
2021/05/10 02:19:40;;;;;;;4.07;2.93;;;14.60;94.70;;;;;;4958057;28;20248;-83
2021/05/10 02:22:05;;;;;;;3.20;3.00;;;14.70;94.50;;;;;;4957892;28;20178;-83
2021/05/10 02:24:35;;;;;;;6.00;3.00;;;14.70;94.20;;;;;;4958502;28;20183;-83
2021/05/10 02:27:00;;;;;;;6.93;3.10;;;14.70;94.20;;;;;;4958324;28;20178;-84
2021/05/10 02:29:26;;;;;;;9.60;2.87;;;14.70;94.20;;;;;;4958188;28;20486;-84
2021/05/10 02:31:51;;;;;;;7.83;3.03;;;14.60;94.50;;;;;;4974683;28;20672;-84
2021/05/10 02:34:17;;;;;;;4.17;3.17;;;14.60;94.60;;;;;;4957759;28;20284;-84
2021/05/10 02:36:42;;;;;;;3.30;2.80;;;14.50;94.90;;;;;;4957905;28;20201;-84
2021/05/10 02:39:08;;;;;;;5.50;3.67;;;14.50;95.00;;;;;;4957508;28;20684;-83
2021/05/10 02:41:33;;;;;;;6.60;3.60;;;14.40;95.20;;;;;;4957346;28;20709;-83
2021/05/10 02:43:59;;;;;;;4.13;3.33;;;14.20;95.90;;;;;;4974518;28;20198;-83
2021/05/10 02:46:24;;;;;;;6.30;3.30;;;14.10;95.90;;;;;;4956945;28;20183;-83
2021/05/10 02:48:50;;;;;;;3.57;2.93;;;14.10;96.50;;;;;;4956166;28;20269;-83
2021/05/10 02:51:15;;;;;;;3.60;3.00;;;14.00;96.40;;;;;;4956033;28;20547;-83
2021/05/10 02:53:41;;;;;;;6.30;3.63;;;13.90;96.60;;;;;;4955909;28;20568;-83
2021/05/10 02:56:06;;;;;;;4.53;3.37;;;13.90;96.90;;;;;;4956238;28;20174;-83
2021/05/10 02:58:32;;;;;;;3.93;3.20;;;13.80;97.10;;;;;;4955939;28;20579;-83
2021/05/10 03:00:57;;;;;;;6.93;3.40;;;13.80;97.30;;;;;;4956202;28;20276;-83
2021/05/10 03:03:23;;;;;;;6.77;3.80;;;13.70;97.30;;;;;;4955920;28;20202;-83
2021/05/10 03:05:48;;;;;;;3.90;3.17;;;13.70;97.30;;;;;;4956651;28;20185;-83
2021/05/10 03:08:14;;;;;;;5.67;3.73;;;13.70;97.30;;;;;;4957916;28;20183;-83
2021/05/10 03:10:39;;;;;;;7.20;3.13;;;13.50;97.30;;;;;;4958079;28;20179;-83
2021/05/10 03:13:05;;;;;;;4.83;2.90;;;13.30;97.30;;;;;;4957814;28;20226;-83
2021/05/10 03:15:30;;;;;;;6.60;3.67;;;13.20;97.30;;;;;;4959211;28;20201;-83
2021/05/10 03:17:55;;;;;;;8.83;3.90;;;13.10;97.30;;;;;;4961201;28;20186;-83
2021/05/10 03:20:23;;;;;;;5.60;3.70;;;13.10;97.30;;;;;;4978425;28;20922;-83
2021/05/10 03:22:51;;;;;;;7.47;4.13;;;13.00;97.30;;;;;;4977696;28;20221;-83
2021/05/10 03:25:17;;;;;;;12.43;5.70;;;13.00;97.30;;;;;;4978188;28;20441;-83
2021/05/10 03:27:43;;;;;;;7.83;4.50;;;13.00;97.30;;;;;;4960543;28;20933;-82
2021/05/10 03:30:10;;;;;;;6.90;5.10;;;12.90;97.30;;;;;;4978056;28;20267;-83
2021/05/10 03:32:36;;;;;;;6.30;4.20;;;12.80;97.30;;;;;;4960478;28;20693;-83
2021/05/10 03:35:03;;;;;;;9.10;5.20;;;12.80;97.30;;;;;;4977251;28;20982;-82
2021/05/10 03:37:29;;;;;;;8.10;5.03;;;12.80;97.30;;;;;;4972218;23;20481;-87
2021/05/10 03:39:54;;;;;;;9.07;5.30;;;12.80;97.30;;;;;;4940041;29;20486;-87
2021/05/10 03:42:20;;;;;;;15.03;6.83;;;12.70;97.30;;;;;;4940254;29;20183;-86
2021/05/10 03:44:45;;;;;;;13.50;6.37;;;12.70;97.30;;;;;;4957297;29;20195;-84
2021/05/10 03:47:11;;;;;;;14.33;5.63;;;12.70;97.30;;;;;;4940264;29;20227;-87
2021/05/10 03:49:36;;;;;;;7.07;4.47;;;12.60;97.30;;;;;;4940278;29;20171;-87
2021/05/10 03:52:04;;;;;;;7.03;5.37;;;12.60;97.30;;;;;;4940235;29;20183;-87
2021/05/10 03:54:30;;;;;;;9.00;5.83;;;12.60;97.30;;;;;;4941290;29;20218;-87
2021/05/10 03:56:55;;;;;;;11.23;5.57;;;12.50;97.30;;;;;;4941537;29;20415;-86
2021/05/10 03:59:22;;;;;;;6.03;4.30;;;12.50;97.30;;;;;;4942115;29;20720;-86
2021/05/10 04:01:47;;;;;;;7.43;4.33;;;12.50;97.30;;;;;;4942163;29;20214;-87
2021/05/10 04:09:32;;;;;;;6.50;3.93;;;12.50;97.30;;;;;;4958663;29;20286;-86
2021/05/10 04:14:24;;;;;;;6.37;3.80;;;12.60;97.30;;;;;;4958292;29;20433;-87
2021/05/10 04:16:50;;;;;;;6.43;3.50;;;12.70;97.30;;;;;;4941262;29;20230;-87
2021/05/10 04:19:16;;;;;;;8.07;4.17;;;12.90;97.30;;;;;;4940810;29;20556;-87
2021/05/10 04:21:43;;;;;;;4.20;3.00;;;13.00;97.30;;;;;;4941280;29;20539;-87
2021/05/10 04:24:09;;;;;;;6.60;3.80;;;13.10;97.30;;;;;;4957081;29;20175;-87
2021/05/10 04:26:34;;;;;;;11.33;3.40;;;13.30;97.30;;;;;;4939642;29;20429;-87
2021/05/10 04:29:00;;;;;;;5.47;3.47;;;13.40;97.30;;;;;;4940010;29;20726;-88
2021/05/10 04:31:25;;;;;;;10.43;3.23;;;13.50;97.30;;;;;;4943760;29;20183;-86
2021/05/10 04:33:51;;;;;;;8.30;3.43;;;13.60;97.30;;;;;;4939864;29;20320;-87
2021/05/10 04:36:16;;;;;;;4.40;3.13;;;13.70;97.30;;;;;;4957263;29;20206;-87
2021/05/10 04:38:43;;;;;;;9.77;3.70;;;13.70;97.30;;;;;;4939595;29;20239;-87
2021/05/10 04:41:09;;;;;;;4.57;3.90;;;13.80;97.30;;;;;;4940286;29;20210;-88
2021/05/10 04:43:35;;;;;;;5.43;3.27;;;13.90;97.30;;;;;;4941388;29;20518;-87
2021/05/10 04:46:00;;;;;;;6.20;3.70;;;14.00;97.30;;;;;;4942033;29;20442;-87
2021/05/10 04:48:29;;;;;;;4.40;3.40;;;14.10;97.30;;;;;;4941854;29;20320;-87
2021/05/10 04:50:55;;;;;;;4.80;3.57;;;14.20;97.30;;;;;;4941257;29;20190;-88
2021/05/10 04:53:21;;;;;;;3.47;3.00;;;14.30;97.30;;;;;;4941259;29;20796;-87
2021/05/10 04:55:47;;;;;;;7.27;4.03;;;14.40;97.30;;;;;;4941196;29;20430;-87
2021/05/10 04:58:12;;;;;;;6.53;3.60;;;14.40;97.30;;;;;;4940693;29;20199;-87
2021/05/10 05:00:38;;;;;;;8.23;3.77;;;14.50;97.30;;;;;;4940026;29;20215;-88
2021/05/10 05:03:04;;;;;;;5.00;3.47;;;14.60;97.30;;;;;;4939466;29;20722;-87
2021/05/10 05:05:29;;;;;;;7.27;3.73;;;14.70;97.30;;;;;;4957559;29;20254;-87
2021/05/10 05:07:55;;;;;;;4.87;3.53;;;14.80;97.10;;;;;;4940219;29;20286;-87
2021/05/10 05:10:21;;;;;;;4.93;3.60;;;14.90;96.90;;;;;;4939766;29;20786;-87
2021/05/10 05:12:50;;;;;;;8.23;3.57;;;15.00;96.50;;;;;;4939083;29;20188;-85
2021/05/10 05:15:17;;;;;;;9.87;4.20;;;15.10;96.60;;;;;;4939079;29;20423;-87
2021/05/10 05:17:43;;;;;;;5.70;3.23;;;15.20;96.30;;;;;;4955876;29;20434;-87
2021/05/10 05:20:10;;;;;;;3.33;3.03;;;15.30;96.20;;;;;;4938799;29;20450;-87
2021/05/10 05:22:36;;;;;;;5.00;3.00;;;15.40;95.90;;;;;;4939542;29;20171;-87
2021/05/10 05:25:03;;;;;;;5.47;3.30;;;15.50;95.40;;;;;;4939179;29;20775;-88
2021/05/10 05:27:29;;;;;;;6.50;4.00;;;15.60;95.40;;;;;;4939251;29;20196;-87
2021/05/10 05:29:54;;;;;;;9.53;3.10;;;15.60;95.20;;;;;;4939372;29;20454;-87
2021/05/10 05:32:21;;;;;;;5.87;3.57;;;15.70;95.10;;;;;;4940116;29;20447;-87
2021/05/10 05:34:46;;;;;;;4.57;3.33;;;15.70;94.80;;;;;;4940883;29;20271;-86
2021/05/10 05:37:12;;;;;;;5.70;3.00;;;15.80;94.70;;;;;;4958266;29;20427;-86
2021/05/10 05:39:38;;;;;;;5.33;3.10;;;15.90;94.60;;;;;;4938931;29;20239;-88
2021/05/10 05:42:03;;;;;;;6.90;3.33;;;15.90;94.70;;;;;;4940464;29;20221;-86
2021/05/10 05:44:33;;;;;;;4.20;3.10;;;16.00;94.60;;;;;;4939836;29;20218;-87
2021/05/10 05:47:01;;;;;;;6.90;3.57;;;16.10;94.60;;;;;;4939729;29;20189;-88
2021/05/10 05:49:27;;;;;;;6.20;3.27;;;16.20;94.20;;;;;;4939129;29;20436;-88
2021/05/10 05:51:52;;;;;;;6.80;3.70;;;16.30;94.40;;;;;;4939118;29;20502;-88
2021/05/10 05:54:18;;;;;;;4.60;2.60;;;16.30;94.00;;;;;;4939213;29;20635;-87
2021/05/10 05:56:43;;;;;;;4.77;3.23;;;16.40;93.80;;;;;;4956613;29;20232;-88
2021/05/10 05:59:09;;;;;;;8.70;3.30;;;16.40;94.10;;;;;;4941233;29;20274;-89
2021/05/10 06:01:35;;;;;;;4.73;2.73;;;16.40;93.80;;;;;;4936485;29;20548;-88
2021/05/10 06:04:00;;;;;;;9.40;3.70;;;16.50;93.80;;;;;;4936160;29;20198;-88
2021/05/10 06:06:26;;;;;;;7.03;3.50;;;16.50;94.00;;;;;;4936607;29;20250;-86
2021/05/10 06:08:51;;;;;;;7.30;3.50;;;16.50;94.10;;;;;;4937938;29;20199;-85
2021/05/10 06:11:17;;;;;;;5.97;3.47;;;16.60;93.60;;;;;;4938243;29;20731;-86
2021/05/10 06:13:42;;;;;;;15.63;3.00;;;16.70;93.70;;;;;;4955624;29;20168;-85
2021/05/10 06:16:08;;;;;;;7.67;3.50;;;16.80;93.70;;;;;;4938607;29;20267;-87
2021/05/10 06:18:35;;;;;;;4.43;3.07;;;16.90;93.30;;;;;;4957198;29;20194;-86
2021/05/10 06:21:02;;;;;;;8.80;3.50;;;17.00;93.20;;;;;;4940488;29;20207;-86
2021/05/10 06:23:28;;;;;;;11.83;3.40;;;17.10;93.40;;;;;;4939714;29;20855;-86
2021/05/10 06:25:53;;;;;;;6.13;3.47;;;17.20;93.70;;;;;;4940152;29;20486;-87
2021/05/10 06:28:19;;;;;;;4.80;3.17;;;17.40;93.20;;;;;;4939604;29;20534;-86
2021/05/10 06:30:52;;;;;;;5.80;3.43;;;17.60;93.10;;;;;;4956374;29;20176;-86
2021/05/10 06:33:17;;;;;;;5.50;2.93;;;17.80;92.70;;;;;;4938957;29;20572;-87
2021/05/10 06:35:43;;;;;;;6.50;3.80;;;17.90;92.70;;;;;;4939102;29;20504;-87
2021/05/10 06:38:13;;;;;;;6.30;3.17;;;18.10;91.90;;;;;;4943685;23;20781;-83
2021/05/10 06:40:38;;;;;;;5.97;3.37;;;18.30;92.50;;;;;;4938423;29;20582;-83
2021/05/10 06:43:04;;;;;;;4.80;3.23;;;18.50;92.50;;;;;;4937965;29;20408;-83
2021/05/10 06:45:29;;;;;;;4.60;3.57;;;18.60;91.00;;;;;;4939413;29;20240;-83
2021/05/10 06:47:55;;;;;;;4.20;2.40;;;18.70;90.50;;;;;;4939436;29;20190;-83
2021/05/10 06:50:21;;;;;;;5.83;3.33;;;18.80;90.50;;;;;;4942178;29;20179;-83
2021/05/10 06:52:46;;;;;;;5.77;3.03;;;18.90;90.30;;;;;;4957555;29;20183;-82
2021/05/10 06:55:12;;;;;;;7.00;2.97;;;19.00;89.20;;;;;;4961192;29;20215;-83
2021/05/10 06:57:38;;;;;;;7.57;3.17;;;19.00;89.40;;;;;;4961868;29;20190;-81
2021/05/10 07:00:04;;;;;;;8.70;3.57;;;19.10;89.20;;;;;;4960607;29;20261;-84
2021/05/10 07:02:30;;;;;;;4.37;3.27;;;19.20;89.30;;;;;;4958098;28;20210;-85
2021/05/10 07:04:56;;;;;;;4.57;3.20;;;19.30;89.50;;;;;;4958094;28;20414;-85
2021/05/10 07:07:22;;;;;;;3.97;3.03;;;19.40;89.00;;;;;;4959855;29;20187;-82
2021/05/10 07:09:48;;;;;;;4.60;3.40;;;19.60;88.90;;;;;;4955722;28;20190;-82
2021/05/10 07:12:14;;;;;;;4.40;3.03;;;19.60;88.20;;;;;;4963160;28;20434;-82
2021/05/10 07:14:40;;;;;;;4.43;3.00;;;19.60;88.30;;;;;;4963251;29;20481;-78
2021/05/10 07:17:07;;;;;;;4.00;2.80;;;19.70;88.60;;;;;;4959485;29;20183;-77
2021/05/10 07:19:32;;;;;;;4.73;3.20;;;19.80;87.80;;;;;;4956711;29;20466;-77
2021/05/10 07:21:58;;;;;;;3.20;2.70;;;20.00;87.20;;;;;;4959420;28;20434;-78
2021/05/10 07:24:24;;;;;;;9.03;3.43;;;20.20;86.90;;;;;;4968295;29;20179;-81
2021/05/10 07:26:50;;;;;;;6.27;3.00;;;20.30;86.20;;;;;;4962321;29;20198;-81
2021/05/10 07:29:16;;;;;;;4.70;2.80;;;20.40;86.70;;;;;;4966242;28;20970;-82
2021/05/10 07:31:41;;;;;;;6.40;2.87;;;20.60;86.30;;;;;;4965027;29;20226;-82
2021/05/10 07:34:07;;;;;;;5.80;2.80;;;20.70;85.60;;;;;;4962915;28;20643;-81
2021/05/10 07:36:33;;;;;;;3.60;2.70;;;20.80;85.40;;;;;;4953823;28;20270;-81
2021/05/10 07:38:58;;;;;;;6.50;2.97;;;21.00;84.40;;;;;;4940650;29;20291;-81
2021/05/10 07:41:24;;;;;;;6.70;2.83;;;21.10;83.70;;;;;;4943073;29;20200;-81
2021/05/10 07:43:50;;;;;;;3.90;2.80;;;21.30;83.10;;;;;;4942494;29;20534;-83
2021/05/10 07:46:15;;;;;;;11.53;3.00;;;21.40;81.70;;;;;;4940888;29;20183;-84
2021/05/10 07:48:41;;;;;;;5.77;2.87;;;21.50;83.20;;;;;;4935284;29;20205;-82
2021/05/10 07:51:09;;;;;;;4.13;2.53;;;21.60;82.60;;;;;;4927264;29;20211;-79
2021/05/10 07:53:34;;;;;;;7.57;3.10;;;21.70;81.50;;;;;;4939935;29;20183;-80
2021/05/10 07:56:00;;;;;;;5.10;2.93;;;21.80;81.70;;;;;;4941751;29;20439;-84
2021/05/10 07:58:26;;;;;;;4.43;3.00;;;22.00;82.30;;;;;;4933961;29;20278;-77
2021/05/10 08:01:00;;;;;;;3.47;2.53;;;22.10;82.40;;;;;;4940204;29;20913;-78
2021/05/10 08:03:28;;;;;;;5.50;2.77;;;22.40;83.10;;;;;;4941854;29;20923;-81
2021/05/10 08:05:54;;;;;;;4.10;2.40;;;22.60;83.10;;;;;;4943550;29;20434;-82
2021/05/10 08:08:24;;;;;;;6.40;2.90;;;22.90;80.80;;;;;;4941373;29;20420;-80
2021/05/10 08:10:50;;;;;;;3.70;2.90;;;23.00;79.10;;;;;;4939000;29;20456;-76
2021/05/10 08:13:16;;;;;;;4.63;2.73;;;23.00;78.40;;;;;;4938550;29;20478;-79
2021/05/10 08:15:43;;;;;;;4.30;2.90;;;23.00;78.10;;;;;;4940883;29;20463;-81
2021/05/10 08:18:10;;;;;;;2.67;2.40;;;23.00;78.50;;;;;;4942288;29;20438;-77
2021/05/10 08:20:41;;;;;;;3.53;2.50;;;23.20;79.00;;;;;;4941379;29;20904;-82
2021/05/10 08:23:07;;;;;;;10.77;3.20;;;23.20;77.70;;;;;;4935562;29;21388;-79
2021/05/10 08:25:33;;;;;;;5.13;2.43;;;23.40;78.30;;;;;;4942713;29;20423;-80
2021/05/10 08:27:59;;;;;;;6.47;2.90;;;23.50;78.40;;;;;;4942889;29;20419;-81
2021/05/10 08:30:24;;;;;;;7.03;2.80;;;23.70;78.00;;;;;;4943210;29;20579;-81
2021/05/10 08:32:51;;;;;;;9.90;3.10;;;23.80;78.20;;;;;;4942456;29;20335;-81
2021/05/10 08:35:16;;;;;;;3.97;2.67;;;23.90;78.20;;;;;;4941054;29;20193;-81
2021/05/10 08:37:42;;;;;;;5.27;2.70;;;24.00;77.20;;;;;;4946589;29;20454;-81
2021/05/10 08:40:09;;;;;;;5.60;2.90;;;24.10;78.20;;;;;;4944092;29;20249;-81
2021/05/10 08:42:35;;;;;;;8.83;2.83;;;24.20;78.10;;;;;;4946939;29;20198;-80
2021/05/10 08:45:00;;;;;;;8.30;3.10;;;24.20;77.90;;;;;;4946152;29;20453;-80
2021/05/10 08:47:38;;;;;;;12.53;3.47;;;24.30;77.10;;;;;;4947024;29;20419;-81
2021/05/10 08:50:05;;;;;;;6.83;2.80;;;24.30;77.10;;;;;;4949970;29;20426;-81
2021/05/10 08:52:33;;;;;;;3.97;2.70;;;24.40;76.60;;;;;;4948675;29;21005;-84
2021/05/10 08:54:59;;;;;;;4.63;2.70;;;24.50;76.80;;;;;;4967240;29;20445;-81
2021/05/10 08:57:25;;;;;;;6.70;2.60;;;24.60;77.00;;;;;;4966972;29;20909;-82
2021/05/10 08:59:51;;;;;;;4.33;3.20;;;24.80;77.30;;;;;;4965569;29;20203;-82
2021/05/10 09:02:29;;;;;;;8.43;3.60;;;25.00;77.40;;;;;;4948347;29;20206;-81
2021/05/10 09:05:08;;;;;;;7.80;3.27;;;25.20;78.00;;;;;;4948240;29;20171;-82
2021/05/10 09:07:34;;;;;;;10.70;3.10;;;25.40;76.40;;;;;;4948364;29;20529;-81
2021/05/10 09:10:03;;;;;;;5.10;2.90;;;25.50;77.70;;;;;;4947834;29;20427;-80
2021/05/10 09:13:01;;;;;;;4.33;2.97;;;25.70;76.70;;;;;;4946647;28;20203;-81
2021/05/10 09:15:32;;;;;;;5.97;3.20;;;25.90;77.20;;;;;;4912817;29;20428;-82
2021/05/10 09:18:02;;;;;;;7.03;2.90;;;26.10;76.90;;;;;;4934005;29;20514;-81
2021/05/10 09:20:34;;;;;;;4.37;2.70;;;26.30;76.10;;;;;;4946939;29;20518;-83
2021/05/10 09:23:02;;;;;;;5.77;3.37;;;26.20;75.90;;;;;;4949325;28;20433;-81
2021/05/10 09:25:36;;;;;;;4.90;2.97;;;26.40;76.30;;;;;;4951339;29;20431;-79
2021/05/10 09:28:14;;;;;;;3.97;2.90;;;26.50;76.80;;;;;;4944515;29;20430;-83
2021/05/10 09:30:42;;;;;;;6.37;2.80;;;26.70;75.70;;;;;;4962406;29;20438;-79
2021/05/10 09:33:15;;;;;;;9.20;2.97;;;26.80;75.30;;;;;;4939491;29;20422;-79
2021/05/10 09:35:41;;;;;;;9.27;3.53;;;27.00;75.20;;;;;;4944718;29;20416;-82
2021/05/10 09:38:10;;;;;;;9.27;3.17;;;27.10;73.90;;;;;;4943397;29;20568;-80
2021/05/10 09:40:45;;;;;;;4.60;2.50;;;27.20;73.00;;;;;;4958247;28;20241;-82
2021/05/10 09:43:12;;;;;;;6.40;2.77;;;27.30;71.20;;;;;;4962995;28;20421;-81
2021/05/10 09:45:46;;;;;;;6.70;2.50;;;27.30;70.80;;;;;;4964172;28;20426;-79
2021/05/10 09:48:41;;;;;;;4.37;2.40;;;27.30;70.70;;;;;;4951591;29;20411;-82
2021/05/10 09:51:08;;;;;;;5.73;2.57;;;27.30;70.90;;;;;;4943674;28;20447;-83
2021/05/10 09:53:41;;;;;;;7.20;3.03;;;27.50;71.10;;;;;;4964139;28;20426;-81
2021/05/10 09:56:29;;;;;;;5.10;2.57;;;27.60;70.40;;;;;;4960999;28;20482;-84
2021/05/10 09:59:03;;;;;;;5.47;2.50;;;27.70;71.00;;;;;;4957257;28;20514;-82
2021/05/10 10:01:45;;;;;;;4.40;3.00;;;27.80;70.50;;;;;;4941312;29;20442;-83
2021/05/10 10:04:11;;;;;;;3.67;2.70;;;28.00;70.60;;;;;;4942588;29;20419;-84
2021/05/10 10:06:37;;;;;;;5.23;2.60;;;28.20;71.40;;;;;;4960064;29;20482;-80
2021/05/10 10:09:04;;;;;;;4.97;2.90;;;28.10;70.00;;;;;;4938237;29;20457;-79
2021/05/10 10:11:30;;;;;;;3.63;2.70;;;28.10;69.90;;;;;;4938340;29;20196;-80
2021/05/10 10:13:57;;;;;;;9.10;2.53;;;28.10;69.30;;;;;;4940981;29;20438;-81
2021/05/10 10:16:25;;;;;;;3.67;2.30;;;27.80;70.50;;;;;;4940824;29;20183;-79
2021/05/10 10:18:52;;;;;;;4.27;2.70;;;27.80;70.40;;;;;;4942663;29;20483;-81
2021/05/10 10:21:19;;;;;;;3.60;2.50;;;28.00;70.90;;;;;;4941211;29;20459;-78
2021/05/10 10:23:55;;;;;;;4.93;2.70;;;27.90;69.80;;;;;;4937351;29;20513;-78
2021/05/10 10:26:23;;;;;;;4.43;2.87;;;27.90;71.00;;;;;;4943090;28;20446;-79
2021/05/10 10:28:50;;;;;;;2.90;2.80;;;28.10;71.00;;;;;;4956886;29;20934;-81
2021/05/10 10:31:31;;;;;;;8.13;2.67;;;28.10;70.30;;;;;;4943757;28;20480;-79
2021/05/10 10:34:03;;;;;;;4.93;2.67;;;28.30;70.70;;;;;;4955211;28;20438;-81
2021/05/10 10:36:42;;;;;;;6.63;2.37;;;28.40;71.00;;;;;;4948933;29;20426;-80
2021/05/10 10:39:27;;;;;;;7.00;2.63;;;28.60;69.60;;;;;;4956543;28;20465;-88
2021/05/10 10:42:06;;;;;;;6.23;2.90;;;28.70;69.30;;;;;;4961152;28;20967;-77
2021/05/10 10:44:43;;;;;;;5.20;2.47;;;28.80;69.90;;;;;;4941418;28;20519;-80
2021/05/10 10:47:11;;;;;;;5.07;2.90;;;28.90;69.80;;;;;;4941239;29;20967;-80
2021/05/10 10:49:43;;;;;;;3.87;2.60;;;28.90;68.80;;;;;;4941449;29;20485;-80
2021/05/10 10:52:20;;;;;;;5.90;2.70;;;28.90;68.30;;;;;;4941166;29;20447;-80
2021/05/10 10:55:07;;;;;;;2.80;2.40;;;28.90;68.70;;;;;;4939655;29;20426;-79
2021/05/10 10:57:33;;;;;;;3.13;2.47;;;28.80;68.90;;;;;;4940471;29;20429;-81
2021/05/10 11:00:00;;;;;;;5.53;3.07;;;29.00;68.70;;;;;;4943586;28;20596;-82
2021/05/10 11:02:46;;;;;;;3.20;2.50;;;28.90;68.10;;;;;;4957279;28;20448;-82
2021/05/10 11:05:22;;;;;;;4.90;2.50;;;28.80;68.10;;;;;;4949355;29;20430;-84
2021/05/10 11:08:02;;;;;;;3.40;2.70;;;29.00;69.80;;;;;;4963406;29;20422;-82
2021/05/10 11:10:51;;;;;;;5.97;2.53;;;29.20;69.20;;;;;;4944350;29;20425;-76
2021/05/10 11:13:29;;;;;;;4.87;2.97;;;29.30;68.70;;;;;;4936077;29;20423;-77
2021/05/10 11:16:02;;;;;;;7.70;3.10;;;29.30;69.50;;;;;;4936272;29;21139;-78
2021/05/10 11:19:03;;;;;;;5.53;2.83;;;29.30;69.20;;;;;;4942289;29;20441;-77
2021/05/10 11:21:29;;;;;;;4.03;2.43;;;29.40;68.30;;;;;;4956727;28;20430;-80
2021/05/10 11:23:57;;;;;;;4.03;2.20;;;29.50;68.80;;;;;;4937006;29;20419;-79
2021/05/10 11:26:45;;;;;;;5.20;2.47;;;29.50;66.80;;;;;;4936641;29;20182;-78
2021/05/10 11:29:29;;;;;;;4.13;2.30;;;29.60;66.70;;;;;;4941886;28;20422;-85
2021/05/10 11:34:37;;;;;;;3.07;2.40;;;29.90;65.60;;;;;;4945728;23;20497;-75
2021/05/10 11:37:07;;;;;;;4.03;2.10;;;29.70;64.50;;;;;;4948423;28;20421;-76
2021/05/10 11:39:34;;;;;;;3.13;2.50;;;29.70;65.50;;;;;;4926982;29;20993;-75
2021/05/10 11:42:18;;;;;;;4.27;2.47;;;30.00;66.10;;;;;;4925989;29;20463;-77
2021/05/10 11:44:45;;;;;;;6.03;2.30;;;30.20;65.50;;;;;;4927260;29;20434;-77
2021/05/10 11:47:14;;;;;;;7.23;2.33;;;30.30;64.20;;;;;;4921434;29;20523;-78
2021/05/10 11:49:42;;;;;;;3.07;2.43;;;30.30;64.70;;;;;;4919761;29;20504;-75
2021/05/10 11:52:13;;;;;;;5.70;2.33;;;30.40;64.70;;;;;;4919633;29;20448;-74
2021/05/10 11:54:44;;;;;;;3.87;2.23;;;30.60;63.70;;;;;;4936707;29;20407;-77
2021/05/10 11:57:11;;;;;;;3.00;2.17;;;30.70;64.10;;;;;;4919156;29;20427;-75
2021/05/10 12:02:20;;;;;;;4.00;2.20;;;31.10;65.00;;;;;;4937188;29;20432;-79
2021/05/10 12:04:57;;;;;;;4.70;2.07;;;31.00;64.10;;;;;;4920687;29;20848;-75
2021/05/10 12:07:26;;;;;;;3.50;2.10;;;31.00;64.40;;;;;;4932182;29;20419;-80
2021/05/10 12:13:26;;;;;;;2.80;2.07;;;31.40;63.90;;;;;;4917255;29;21014;-79
2021/05/10 12:16:04;;;;;;;3.67;2.23;;;31.20;62.60;;;;;;4921684;29;20482;-77
2021/05/10 12:18:43;;;;;;;3.33;2.30;;;30.90;64.20;;;;;;4922617;29;20419;-81
2021/05/10 12:21:22;;;;;;;4.73;1.83;;;30.90;63.10;;;;;;4902142;29;20504;-76
2021/05/10 12:23:48;;;;;;;2.60;1.70;;;30.90;63.10;;;;;;4902086;29;20444;-76
2021/05/10 12:26:14;;;;;;;6.57;2.23;;;30.70;62.90;;;;;;4901441;29;20456;-79
2021/05/10 12:28:40;;;;;;;2.63;2.27;;;30.80;64.60;;;;;;4930676;29;20168;-76
2021/05/10 12:31:05;;;;;;;5.00;2.63;;;31.00;64.90;;;;;;4940454;29;20898;-81
2021/05/10 12:33:31;;;;;;;2.33;1.93;;;31.20;64.20;;;;;;4937412;29;20228;-80
2021/05/10 12:36:05;;;;;;;6.87;2.60;;;31.30;63.40;;;;;;4916195;29;20188;-82
2021/05/10 12:38:38;;;;;;;3.13;2.20;;;31.30;63.10;;;;;;4925049;29;20422;-78
2021/05/10 12:41:30;;;;;;;4.43;2.10;;;31.20;63.30;;;;;;4955134;29;20497;-74
2021/05/10 12:43:57;;;;;;;3.10;1.97;;;31.30;63.60;;;;;;4926875;29;20424;-79
2021/05/10 12:46:28;;;;;;;5.13;2.07;;;31.40;63.70;;;;;;4919171;29;20416;-76
2021/05/10 12:48:53;;;;;;;4.60;2.00;;;31.50;63.80;;;;;;4918315;29;20424;-80
2021/05/10 12:51:23;;;;;;;3.10;1.87;;;31.70;64.20;;;;;;4919022;29;20959;-74
2021/05/10 12:56:26;;;;;;;2.83;2.27;;;31.90;64.20;;;;;;5575828;23;20489;-86
2021/05/10 12:58:52;;;;;;;3.40;2.50;;;32.30;64.00;;;;;;4955649;28;20439;-86
2021/05/10 13:01:22;;;;;;;4.03;1.90;;;32.30;63.70;;;;;;4972919;28;20477;-86
2021/05/10 13:03:57;;;;;;;4.90;2.00;;;32.10;63.10;;;;;;4950161;28;20509;-86
2021/05/10 13:06:28;;;;;;;3.43;2.33;;;32.20;62.00;;;;;;4948061;28;20442;-86
2021/05/10 13:08:54;;;;;;;4.57;2.40;;;32.50;61.60;;;;;;4968459;28;20406;-87
2021/05/10 13:11:39;;;;;;;3.47;1.80;;;32.60;61.70;;;;;;4950971;28;20421;-87